Time;durP1;ratioP1;P1;durP2;ratioP2;P2;SDS_P1;SDS_P2;PMS_P1;PMS_P2;Temp;Humidity;BMP_temperature;BMP_pressure;BME280_temperature;BME280_humidity;BME280_pressure;Samples;Min_cycle;Max_cycle;Signal;HPM_P1;HPM_P2
2023/09/02 00:00:10;;;;;;;8.83;5.80;;;14.50;99.90;;;;;;6107855;23;20168;-75
2023/09/02 00:02:39;;;;;;;6.33;5.27;;;14.50;99.90;;;;;;6109228;23;20589;-73
2023/09/02 00:05:05;;;;;;;6.07;5.50;;;14.50;99.90;;;;;;6111592;23;20431;-75
2023/09/02 00:07:30;;;;;;;8.97;5.57;;;14.50;99.90;;;;;;6110512;23;20432;-74
2023/09/02 00:09:56;;;;;;;7.67;5.80;;;14.50;99.90;;;;;;6087955;23;20405;-73
2023/09/02 00:12:22;;;;;;;6.20;5.33;;;14.50;99.90;;;;;;6111886;23;20136;-75
2023/09/02 00:14:47;;;;;;;6.50;5.70;;;14.40;99.90;;;;;;6080101;23;20149;-73
2023/09/02 00:17:13;;;;;;;5.10;4.43;;;14.40;99.90;;;;;;6080271;23;20401;-73
2023/09/02 00:19:40;;;;;;;5.60;5.10;;;14.40;99.90;;;;;;6060842;23;20209;-75
2023/09/02 00:22:06;;;;;;;6.60;4.87;;;14.40;99.90;;;;;;6079841;23;20366;-74
2023/09/02 00:24:31;;;;;;;5.30;4.80;;;14.40;99.90;;;;;;6079781;23;20421;-74
2023/09/02 00:26:57;;;;;;;5.87;5.17;;;14.30;99.90;;;;;;6078439;23;20145;-73
2023/09/02 00:29:23;;;;;;;4.80;4.37;;;14.30;99.90;;;;;;6076558;23;20640;-73
2023/09/02 00:31:48;;;;;;;8.33;5.70;;;14.30;99.90;;;;;;6077530;23;20177;-73
2023/09/02 00:34:15;;;;;;;8.33;5.60;;;14.30;99.90;;;;;;6056572;23;20397;-75
2023/09/02 00:36:40;;;;;;;5.23;4.73;;;14.30;99.90;;;;;;6062260;23;20142;-74
2023/09/02 00:39:06;;;;;;;6.77;5.23;;;14.30;99.90;;;;;;6082570;23;20378;-74
2023/09/02 00:41:41;;;;;;;5.40;4.90;;;14.30;99.90;;;;;;6079855;23;20679;-71
2023/09/02 00:44:08;;;;;;;7.70;4.83;;;14.30;99.90;;;;;;6057149;23;20644;-74
2023/09/02 00:46:34;;;;;;;5.30;4.80;;;14.30;99.90;;;;;;6081943;23;20381;-72
2023/09/02 00:49:00;;;;;;;5.40;4.90;;;14.30;99.90;;;;;;6112376;23;20386;-75
2023/09/02 00:51:26;;;;;;;5.37;4.53;;;14.20;99.90;;;;;;6087114;23;20196;-73
2023/09/02 00:53:52;;;;;;;5.10;4.60;;;14.20;99.90;;;;;;6112299;23;20416;-73
2023/09/02 00:56:18;;;;;;;5.93;5.00;;;14.20;99.90;;;;;;6112793;23;20372;-71
2023/09/02 00:58:44;;;;;;;6.23;5.07;;;14.20;99.90;;;;;;6109285;23;20531;-76
2023/09/02 01:01:10;;;;;;;6.30;4.83;;;14.20;99.90;;;;;;6109757;23;20537;-70
2023/09/02 01:03:37;;;;;;;6.00;4.97;;;14.20;99.90;;;;;;6109747;23;20451;-73
2023/09/02 01:06:04;;;;;;;5.83;5.23;;;14.10;99.90;;;;;;6109501;23;20365;-72
2023/09/02 01:08:30;;;;;;;6.43;4.90;;;14.10;99.90;;;;;;6106879;23;20841;-75
2023/09/02 01:10:59;;;;;;;5.27;4.77;;;14.10;99.90;;;;;;6110829;23;20429;-73
2023/09/02 01:13:25;;;;;;;5.43;4.87;;;14.10;99.90;;;;;;6114103;23;20396;-73
2023/09/02 01:15:54;;;;;;;4.70;4.30;;;14.10;99.90;;;;;;6115329;23;20761;-73
2023/09/02 01:18:24;;;;;;;5.53;4.93;;;14.00;99.90;;;;;;6066530;23;20924;-72
2023/09/02 01:21:27;;;;;;;6.60;4.90;;;14.00;99.90;;;;;;6114898;23;20427;-72
2023/09/02 01:24:27;;;;;;;6.17;5.30;;;14.00;99.90;;;;;;6086573;23;20487;-73
2023/09/02 01:27:16;;;;;;;5.50;5.00;;;14.00;99.90;;;;;;6057598;23;20404;-72
2023/09/02 01:30:13;;;;;;;5.07;4.53;;;14.00;99.90;;;;;;6108313;23;20479;-73
2023/09/02 01:32:42;;;;;;;5.80;5.00;;;14.00;99.90;;;;;;6085138;23;20431;-74
2023/09/02 01:35:09;;;;;;;4.87;4.37;;;14.00;99.90;;;;;;6107572;23;20443;-73
2023/09/02 01:37:42;;;;;;;6.63;3.70;;;13.90;99.90;;;;;;6106542;23;20402;-73
2023/09/02 01:40:11;;;;;;;4.57;3.90;;;13.90;99.90;;;;;;6108128;23;20400;-72
2023/09/02 01:42:37;;;;;;;6.33;5.50;;;13.90;99.90;;;;;;6085590;23;20372;-73
2023/09/02 01:45:04;;;;;;;7.20;6.50;;;13.90;99.90;;;;;;6081108;23;20432;-72
2023/09/02 01:47:31;;;;;;;6.80;5.50;;;13.90;99.90;;;;;;6083015;23;20368;-73
2023/09/02 01:49:57;;;;;;;7.87;7.07;;;13.90;99.90;;;;;;6109000;23;20431;-74
2023/09/02 01:52:23;;;;;;;7.03;6.20;;;14.00;99.90;;;;;;6059974;23;20709;-72
2023/09/02 01:54:49;;;;;;;6.60;5.87;;;13.90;99.90;;;;;;6111208;23;20365;-72
2023/09/02 01:57:16;;;;;;;7.60;6.10;;;13.90;99.90;;;;;;6111491;23;20141;-71
2023/09/02 01:59:42;;;;;;;7.30;6.30;;;13.90;99.90;;;;;;6109373;23;20396;-73
2023/09/02 02:02:08;;;;;;;7.40;6.60;;;13.90;99.90;;;;;;6107595;23;20406;-73
2023/09/02 02:04:38;;;;;;;6.83;6.13;;;13.90;99.90;;;;;;6106823;23;20203;-72
2023/09/02 02:07:06;;;;;;;9.57;6.43;;;13.90;99.90;;;;;;6106443;23;20367;-71
2023/09/02 02:09:40;;;;;;;9.77;6.87;;;13.90;99.90;;;;;;6081122;23;20383;-73
2023/09/02 02:12:08;;;;;;;6.40;5.80;;;13.90;99.90;;;;;;6107671;23;20462;-73
2023/09/02 02:14:34;;;;;;;7.43;6.33;;;13.90;99.90;;;;;;6081462;23;20375;-73
2023/09/02 02:17:01;;;;;;;8.63;5.90;;;13.90;99.90;;;;;;6083734;23;20689;-72
2023/09/02 02:19:26;;;;;;;6.80;6.13;;;13.90;99.90;;;;;;6108873;23;20406;-71
2023/09/02 02:21:52;;;;;;;6.30;5.67;;;13.90;99.90;;;;;;6085952;23;20450;-73
2023/09/02 02:24:17;;;;;;;7.50;5.40;;;13.90;99.90;;;;;;6081389;23;20184;-71
2023/09/02 02:26:43;;;;;;;9.30;7.20;;;13.90;99.90;;;;;;6080955;23;20149;-72
2023/09/02 02:29:10;;;;;;;6.23;5.63;;;13.90;99.90;;;;;;6081682;23;20168;-72
2023/09/02 02:31:36;;;;;;;7.03;5.77;;;13.90;99.90;;;;;;6109444;23;20486;-71
2023/09/02 02:34:02;;;;;;;7.10;6.30;;;13.80;99.90;;;;;;6105367;23;20415;-72
2023/09/02 02:36:28;;;;;;;7.77;6.20;;;13.80;99.90;;;;;;6084595;23;20367;-73
2023/09/02 02:38:54;;;;;;;7.20;6.40;;;13.80;99.90;;;;;;6110045;23;20727;-72
2023/09/02 02:41:19;;;;;;;7.93;6.90;;;13.90;99.90;;;;;;6083272;23;20239;-72
2023/09/02 02:43:45;;;;;;;7.70;5.67;;;13.80;99.90;;;;;;6106558;23;20168;-73
2023/09/02 02:46:10;;;;;;;9.10;7.13;;;13.80;99.90;;;;;;6081339;23;20216;-71
2023/09/02 02:48:36;;;;;;;6.70;6.10;;;13.80;99.90;;;;;;6081244;23;20155;-74
2023/09/02 02:51:01;;;;;;;7.30;6.03;;;13.80;99.90;;;;;;6080306;23;20175;-71
2023/09/02 02:53:27;;;;;;;7.20;6.47;;;13.80;99.90;;;;;;6078619;23;20148;-72
2023/09/02 02:55:57;;;;;;;8.17;6.40;;;13.80;99.90;;;;;;6079608;23;20419;-73
2023/09/02 02:58:23;;;;;;;6.87;6.07;;;13.90;99.90;;;;;;6079964;23;20389;-72
2023/09/02 03:00:49;;;;;;;7.27;6.00;;;13.90;99.90;;;;;;6081727;23;20175;-72
2023/09/02 03:03:20;;;;;;;13.20;6.67;;;13.90;99.90;;;;;;6103734;23;20157;-72
2023/09/02 03:05:47;;;;;;;7.10;5.73;;;14.00;99.90;;;;;;6083449;23;20495;-72
2023/09/02 03:08:12;;;;;;;7.70;6.73;;;14.00;99.90;;;;;;6082345;23;20369;-73
2023/09/02 03:10:39;;;;;;;7.13;5.73;;;14.10;99.90;;;;;;6109382;23;20166;-72
2023/09/02 03:13:05;;;;;;;5.77;5.23;;;14.10;99.90;;;;;;6084143;23;20175;-74
2023/09/02 03:15:31;;;;;;;6.47;4.90;;;14.10;99.90;;;;;;6084931;23;20377;-73
2023/09/02 03:17:58;;;;;;;6.00;4.90;;;14.20;99.90;;;;;;6081498;23;20424;-74
2023/09/02 03:20:26;;;;;;;5.10;4.60;;;14.20;99.90;;;;;;6059449;23;20439;-72
2023/09/02 03:22:52;;;;;;;5.10;4.60;;;14.20;99.90;;;;;;6082132;23;20376;-72
2023/09/02 03:25:18;;;;;;;5.13;4.63;;;14.30;99.90;;;;;;6080807;23;20431;-72
2023/09/02 03:27:43;;;;;;;6.03;4.50;;;14.30;99.90;;;;;;6080374;23;20168;-72
2023/09/02 03:30:09;;;;;;;5.13;4.57;;;14.30;99.90;;;;;;6079691;23;20205;-72
2023/09/02 03:32:36;;;;;;;5.40;4.37;;;14.30;99.90;;;;;;6106026;23;20133;-73
2023/09/02 03:35:04;;;;;;;4.80;4.30;;;14.30;99.90;;;;;;6106373;23;20632;-73
2023/09/02 03:37:29;;;;;;;4.93;4.20;;;14.30;99.90;;;;;;6084991;23;20250;-73
2023/09/02 03:39:56;;;;;;;5.20;4.53;;;14.20;99.90;;;;;;6106791;23;20853;-71
2023/09/02 03:42:21;;;;;;;4.73;4.27;;;14.20;99.90;;;;;;6106010;23;20155;-72
2023/09/02 03:44:48;;;;;;;4.57;3.57;;;14.20;99.90;;;;;;6083647;23;20408;-72
2023/09/02 03:47:15;;;;;;;6.03;5.43;;;14.10;99.90;;;;;;6105360;23;20384;-72
2023/09/02 03:49:42;;;;;;;5.63;5.13;;;14.10;99.90;;;;;;6103580;23;20826;-73
2023/09/02 03:52:08;;;;;;;5.77;5.17;;;14.10;99.90;;;;;;6080100;23;20381;-73
2023/09/02 03:54:36;;;;;;;5.47;4.60;;;14.10;99.90;;;;;;6079011;23;20401;-72
2023/09/02 03:57:03;;;;;;;5.17;4.63;;;14.10;99.90;;;;;;6079050;23;20635;-72
2023/09/02 03:59:28;;;;;;;6.50;5.47;;;14.10;99.90;;;;;;6104061;23;20360;-71
2023/09/02 04:01:54;;;;;;;7.43;6.17;;;14.10;99.90;;;;;;6104572;23;20455;-71
2023/09/02 04:04:19;;;;;;;6.93;6.20;;;14.20;99.90;;;;;;6078499;23;20248;-72
2023/09/02 04:06:45;;;;;;;6.50;5.57;;;14.20;99.90;;;;;;6055071;23;20176;-71
2023/09/02 04:09:10;;;;;;;8.90;5.20;;;14.20;99.90;;;;;;6075419;23;20156;-71
2023/09/02 04:11:36;;;;;;;9.17;5.93;;;14.20;99.90;;;;;;6074649;23;20183;-71
2023/09/02 04:14:02;;;;;;;7.27;6.30;;;14.20;99.90;;;;;;6075141;23;20563;-71
2023/09/02 04:16:28;;;;;;;5.60;5.00;;;14.20;99.90;;;;;;6073784;23;20141;-71
2023/09/02 04:18:53;;;;;;;5.57;5.07;;;14.20;99.90;;;;;;6098396;23;20141;-72
2023/09/02 04:21:19;;;;;;;6.90;6.03;;;14.20;99.90;;;;;;6098181;23;20223;-70
2023/09/02 04:23:46;;;;;;;7.80;4.73;;;14.10;99.90;;;;;;6074720;23;20413;-72
2023/09/02 04:26:14;;;;;;;5.13;4.47;;;14.10;99.90;;;;;;6073967;23;20357;-70
2023/09/02 04:28:40;;;;;;;7.63;5.30;;;14.10;99.90;;;;;;6050472;23;20377;-70
2023/09/02 04:31:06;;;;;;;8.87;5.03;;;14.00;99.90;;;;;;6099739;23;20719;-72
2023/09/02 04:33:34;;;;;;;7.47;5.70;;;14.00;99.90;;;;;;6097955;23;20681;-71
2023/09/02 04:36:02;;;;;;;5.27;4.67;;;14.00;99.90;;;;;;6074575;23;20610;-71
2023/09/02 04:38:31;;;;;;;5.80;5.07;;;14.00;99.90;;;;;;6099457;23;20369;-71
2023/09/02 04:40:56;;;;;;;12.03;7.00;;;14.00;99.90;;;;;;6100136;23;20400;-72
2023/09/02 04:43:23;;;;;;;7.17;6.00;;;14.00;99.90;;;;;;6073582;23;20449;-72
2023/09/02 04:45:51;;;;;;;10.30;7.50;;;14.00;99.90;;;;;;6098736;23;20207;-72
2023/09/02 04:48:17;;;;;;;10.80;7.20;;;14.00;99.90;;;;;;6074055;23;20364;-72
2023/09/02 04:50:43;;;;;;;14.30;8.70;;;14.10;99.90;;;;;;6073861;23;20426;-73
2023/09/02 04:53:11;;;;;;;13.50;9.27;;;14.10;99.90;;;;;;6098964;23;20379;-72
2023/09/02 04:55:40;;;;;;;15.43;8.83;;;14.10;99.90;;;;;;6074162;23;20783;-73
2023/09/02 04:58:08;;;;;;;14.47;9.43;;;14.20;99.90;;;;;;6073767;23;20377;-72
2023/09/02 05:00:37;;;;;;;13.90;9.33;;;14.20;99.90;;;;;;6076541;23;20467;-72
2023/09/02 05:03:03;;;;;;;15.80;9.60;;;14.20;99.90;;;;;;6105507;23;20379;-73
2023/09/02 05:05:29;;;;;;;16.60;10.20;;;14.20;99.90;;;;;;6080841;23;20423;-72
2023/09/02 05:07:56;;;;;;;13.67;7.97;;;14.20;99.90;;;;;;6107325;23;20272;-72
2023/09/02 05:10:23;;;;;;;14.10;8.63;;;14.20;99.90;;;;;;6081568;23;20474;-72
2023/09/02 05:12:49;;;;;;;12.87;8.70;;;14.20;99.90;;;;;;6105419;23;20451;-70
2023/09/02 05:15:15;;;;;;;14.80;9.10;;;14.30;99.90;;;;;;6059078;23;20388;-72
2023/09/02 05:17:40;;;;;;;19.03;11.17;;;14.30;99.90;;;;;;6105933;23;20159;-71
2023/09/02 05:20:06;;;;;;;12.27;7.70;;;14.30;99.90;;;;;;6110488;23;20584;-72
2023/09/02 05:22:33;;;;;;;15.30;9.40;;;14.30;99.90;;;;;;6064635;23;20582;-73
2023/09/02 05:24:59;;;;;;;12.10;9.00;;;14.40;99.90;;;;;;6114180;23;20459;-72
2023/09/02 05:27:25;;;;;;;14.67;9.17;;;14.40;99.90;;;;;;6114649;23;20817;-72
2023/09/02 05:29:50;;;;;;;13.93;9.07;;;14.50;99.90;;;;;;6114460;23;20396;-71
2023/09/02 05:32:16;;;;;;;13.97;9.03;;;14.50;99.90;;;;;;6087289;23;20140;-72
2023/09/02 05:34:43;;;;;;;18.60;10.60;;;14.50;99.90;;;;;;6108648;23;20560;-73
2023/09/02 05:37:09;;;;;;;16.33;10.53;;;14.60;99.90;;;;;;6107978;23;20408;-72
2023/09/02 05:39:34;;;;;;;16.97;11.00;;;14.70;99.90;;;;;;6106690;23;20463;-73
2023/09/02 05:42:00;;;;;;;17.10;10.13;;;14.70;99.90;;;;;;6082318;23;20503;-73
2023/09/02 05:44:25;;;;;;;15.50;9.93;;;14.70;99.90;;;;;;6083124;23;20171;-73
2023/09/02 05:46:51;;;;;;;15.40;10.50;;;14.80;99.90;;;;;;6106235;23;20141;-71
2023/09/02 05:49:17;;;;;;;14.57;9.80;;;14.80;99.90;;;;;;6080820;23;20144;-72
2023/09/02 05:51:44;;;;;;;15.63;11.60;;;14.80;99.90;;;;;;6108742;23;20188;-73
2023/09/02 05:54:09;;;;;;;16.30;11.00;;;14.90;99.90;;;;;;6084275;23;20156;-72
2023/09/02 05:56:36;;;;;;;23.57;10.97;;;14.90;99.90;;;;;;6106538;23;20837;-72
2023/09/02 05:59:02;;;;;;;16.23;10.87;;;15.00;99.90;;;;;;6107051;23;20161;-72
2023/09/02 06:01:28;;;;;;;14.23;10.47;;;15.00;99.90;;;;;;6110790;23;20749;-72
2023/09/02 06:03:54;;;;;;;12.57;9.03;;;15.00;99.90;;;;;;6108383;23;20508;-74
2023/09/02 06:06:20;;;;;;;12.50;9.80;;;15.00;99.90;;;;;;6086661;23;20376;-74
2023/09/02 06:08:46;;;;;;;13.03;9.30;;;15.00;99.90;;;;;;6082356;23;20149;-73
2023/09/02 06:11:11;;;;;;;14.30;10.83;;;15.10;99.90;;;;;;6083293;23;20160;-72
2023/09/02 06:13:37;;;;;;;12.90;9.17;;;15.10;99.90;;;;;;6083404;23;20148;-74
2023/09/02 06:16:04;;;;;;;14.57;10.00;;;15.20;99.90;;;;;;6107126;23;20141;-73
2023/09/02 06:18:31;;;;;;;14.43;11.87;;;15.20;99.90;;;;;;6109117;23;20141;-75
2023/09/02 06:20:57;;;;;;;11.30;9.10;;;15.30;99.90;;;;;;6105998;23;20666;-72
2023/09/02 06:23:24;;;;;;;15.23;10.50;;;15.30;99.90;;;;;;6106536;23;20373;-74
2023/09/02 06:26:00;;;;;;;12.80;9.73;;;15.30;99.90;;;;;;6108226;23;20137;-73
2023/09/02 06:28:27;;;;;;;11.67;9.37;;;15.40;99.90;;;;;;6107378;23;20432;-74
2023/09/02 06:30:52;;;;;;;13.17;9.97;;;15.40;99.90;;;;;;6104721;23;20399;-73
2023/09/02 06:33:23;;;;;;;11.10;8.37;;;15.50;99.90;;;;;;6106158;23;20416;-73
2023/09/02 06:35:49;;;;;;;11.00;8.40;;;15.60;99.90;;;;;;6107548;23;20144;-74
2023/09/02 06:38:16;;;;;;;7.07;6.17;;;15.70;99.90;;;;;;6105893;23;20368;-75
2023/09/02 06:40:41;;;;;;;6.37;5.70;;;15.80;99.90;;;;;;6106812;23;20428;-73
2023/09/02 06:43:07;;;;;;;5.50;4.83;;;15.90;99.90;;;;;;6081775;23;20384;-72
2023/09/02 06:45:33;;;;;;;6.60;5.07;;;16.00;99.90;;;;;;6106511;23;20180;-74
2023/09/02 06:47:58;;;;;;;5.27;3.97;;;16.20;99.90;;;;;;6058154;23;20204;-74
2023/09/02 06:50:26;;;;;;;4.07;3.60;;;16.30;99.90;;;;;;6082510;23;20171;-74
2023/09/02 06:52:52;;;;;;;5.47;3.93;;;16.40;99.90;;;;;;6083191;23;20145;-74
2023/09/02 06:55:18;;;;;;;4.40;4.00;;;16.60;99.90;;;;;;6108774;23;20373;-73
2023/09/02 06:57:44;;;;;;;4.50;3.73;;;16.60;99.90;;;;;;6108530;23;20134;-75
2023/09/02 07:00:14;;;;;;;3.20;2.90;;;16.70;99.90;;;;;;6082824;23;20485;-76
2023/09/02 07:02:42;;;;;;;4.60;3.20;;;16.90;99.90;;;;;;6064291;23;20813;-74
2023/09/02 07:05:08;;;;;;;4.80;4.40;;;17.00;99.90;;;;;;6109223;23;20434;-74
2023/09/02 07:07:36;;;;;;;4.53;3.90;;;17.20;99.90;;;;;;6104699;23;20361;-73
2023/09/02 07:10:02;;;;;;;4.80;4.30;;;17.30;99.90;;;;;;6114566;23;20405;-74
2023/09/02 07:12:27;;;;;;;4.60;3.97;;;17.50;99.90;;;;;;6112078;23;20391;-73
2023/09/02 07:14:53;;;;;;;3.80;3.27;;;17.60;99.90;;;;;;6081571;23;20373;-75
2023/09/02 07:17:18;;;;;;;4.20;3.80;;;17.80;99.90;;;;;;6107569;23;20141;-74
2023/09/02 07:19:44;;;;;;;3.40;3.10;;;18.00;99.90;;;;;;6105792;23;20171;-72
2023/09/02 07:22:09;;;;;;;2.87;2.57;;;18.10;99.90;;;;;;6107407;23;20148;-73
2023/09/02 07:24:35;;;;;;;3.00;2.70;;;18.20;99.90;;;;;;6083136;23;20168;-72
2023/09/02 07:27:01;;;;;;;3.67;2.90;;;18.30;99.90;;;;;;6084860;23;20137;-74
2023/09/02 07:29:28;;;;;;;4.20;3.60;;;18.50;99.90;;;;;;6108618;23;20163;-74
2023/09/02 07:31:55;;;;;;;4.17;3.57;;;18.60;99.90;;;;;;6112144;23;20144;-75
2023/09/02 07:34:21;;;;;;;3.50;3.20;;;18.70;99.90;;;;;;6085472;23;20380;-74
2023/09/02 07:36:46;;;;;;;4.20;3.73;;;18.70;99.90;;;;;;6109296;23;20408;-75
2023/09/02 07:39:14;;;;;;;8.20;6.43;;;18.90;99.90;;;;;;6106497;23;20140;-72
2023/09/02 07:41:40;;;;;;;4.50;4.03;;;18.90;99.90;;;;;;6085240;23;20152;-76
2023/09/02 07:44:05;;;;;;;6.23;5.73;;;19.00;99.90;;;;;;6082760;23;20462;-73
2023/09/02 07:46:31;;;;;;;6.23;5.07;;;19.10;99.90;;;;;;6107176;23;20141;-73
2023/09/02 07:48:56;;;;;;;5.30;4.80;;;19.20;99.90;;;;;;6107634;23;20129;-72
2023/09/02 07:51:22;;;;;;;5.33;4.83;;;19.30;99.90;;;;;;6107945;23;20407;-73
2023/09/02 07:53:48;;;;;;;8.40;7.60;;;19.30;99.90;;;;;;6083872;23;20139;-74
2023/09/02 07:56:13;;;;;;;6.60;6.00;;;19.20;99.90;;;;;;6108318;23;20208;-74
2023/09/02 07:58:42;;;;;;;6.43;5.83;;;19.20;99.90;;;;;;6106590;23;20172;-74
2023/09/02 08:01:07;;;;;;;7.97;7.07;;;19.20;99.90;;;;;;6106536;23;20318;-73
2023/09/02 08:03:33;;;;;;;8.23;7.43;;;19.20;99.90;;;;;;6104879;23;20525;-73
2023/09/02 08:06:07;;;;;;;7.43;6.73;;;19.20;99.90;;;;;;6082988;23;20144;-74
2023/09/02 08:08:34;;;;;;;5.57;5.10;;;19.20;99.90;;;;;;6106728;23;20137;-73
2023/09/02 08:11:06;;;;;;;7.30;6.60;;;19.30;99.90;;;;;;6106857;23;20392;-73
2023/09/02 08:13:33;;;;;;;5.83;5.33;;;19.40;99.90;;;;;;6080472;23;20375;-76
2023/09/02 08:16:02;;;;;;;6.97;6.27;;;19.50;99.90;;;;;;6082437;23;20634;-74
2023/09/02 08:18:28;;;;;;;7.40;5.97;;;19.60;99.90;;;;;;6105907;23;20364;-74
2023/09/02 08:20:53;;;;;;;6.80;6.20;;;19.70;99.90;;;;;;6105594;23;20384;-74
2023/09/02 08:23:19;;;;;;;6.27;5.77;;;19.80;99.90;;;;;;6110956;23;20175;-76
2023/09/02 08:25:45;;;;;;;6.57;5.97;;;19.80;99.90;;;;;;6089705;23;20156;-76
2023/09/02 08:28:10;;;;;;;5.40;4.90;;;19.70;99.90;;;;;;6080521;23;20376;-75
2023/09/02 08:30:39;;;;;;;6.17;5.57;;;19.80;99.90;;;;;;6081624;23;20176;-73
2023/09/02 08:33:05;;;;;;;5.20;4.80;;;19.90;99.90;;;;;;6108318;23;20145;-76
2023/09/02 08:35:35;;;;;;;6.00;4.47;;;20.00;99.90;;;;;;6109656;23;20720;-73
2023/09/02 08:38:01;;;;;;;4.50;4.10;;;20.10;99.90;;;;;;6108566;23;20149;-74
2023/09/02 08:40:27;;;;;;;3.50;3.20;;;20.30;99.90;;;;;;6062987;23;20397;-74
2023/09/02 08:42:54;;;;;;;3.30;3.00;;;20.30;99.90;;;;;;6085960;23;20137;-74
2023/09/02 08:45:22;;;;;;;3.33;3.03;;;20.40;99.90;;;;;;6063127;23;20165;-77
2023/09/02 08:47:53;;;;;;;2.97;2.70;;;20.40;99.90;;;;;;6114694;23;20388;-75
2023/09/02 08:50:20;;;;;;;3.27;2.97;;;20.50;99.90;;;;;;6087030;23;20392;-76
2023/09/02 08:52:46;;;;;;;3.60;3.30;;;20.50;99.90;;;;;;6085198;23;20369;-76
2023/09/02 08:55:15;;;;;;;4.00;2.73;;;20.50;99.90;;;;;;6064211;23;20382;-74
2023/09/02 08:57:42;;;;;;;4.23;3.03;;;20.50;99.90;;;;;;6063391;23;20455;-75
2023/09/02 09:00:07;;;;;;;3.37;3.00;;;20.60;99.90;;;;;;6111183;23;20427;-74
2023/09/02 09:02:34;;;;;;;2.83;2.63;;;20.60;99.90;;;;;;6111934;23;20361;-76
2023/09/02 09:05:02;;;;;;;3.37;3.07;;;20.70;99.90;;;;;;6084835;23;20193;-77
2023/09/02 09:07:29;;;;;;;2.93;2.70;;;20.70;99.90;;;;;;6113118;23;20360;-78
2023/09/02 09:09:57;;;;;;;3.17;2.87;;;20.70;99.90;;;;;;6060561;23;20505;-74
2023/09/02 09:12:24;;;;;;;3.07;2.77;;;20.70;99.90;;;;;;6109556;23;20380;-75
2023/09/02 09:14:53;;;;;;;2.80;2.47;;;20.80;99.90;;;;;;6111361;23;20361;-76
2023/09/02 09:17:19;;;;;;;4.40;2.93;;;20.80;99.90;;;;;;6062314;23;20380;-74
2023/09/02 09:19:45;;;;;;;3.00;2.57;;;20.90;99.90;;;;;;6086384;23;20369;-74
2023/09/02 09:22:11;;;;;;;2.80;2.57;;;20.90;99.90;;;;;;6113103;23;20423;-77
2023/09/02 09:24:37;;;;;;;2.90;2.70;;;20.90;99.90;;;;;;6064288;23;20177;-74
2023/09/02 09:27:06;;;;;;;4.20;2.47;;;21.00;99.90;;;;;;6066955;23;20147;-76
2023/09/02 09:29:42;;;;;;;3.93;3.53;;;21.10;99.90;;;;;;6089958;23;20193;-73
2023/09/02 09:32:12;;;;;;;3.23;2.93;;;21.10;99.90;;;;;;6117155;23;20376;-76
2023/09/02 09:34:40;;;;;;;3.70;3.40;;;21.20;99.90;;;;;;6116394;23;20678;-77
2023/09/02 09:37:08;;;;;;;3.70;2.90;;;21.20;99.90;;;;;;6117731;23;20793;-74
2023/09/02 09:39:45;;;;;;;3.13;2.83;;;21.20;99.90;;;;;;6091408;23;20678;-75
2023/09/02 09:42:15;;;;;;;4.10;3.10;;;21.20;99.90;;;;;;6090758;23;20403;-76
2023/09/02 09:44:52;;;;;;;2.73;2.47;;;21.20;99.90;;;;;;6057150;23;20485;-77
2023/09/02 09:47:18;;;;;;;3.40;2.37;;;21.30;99.90;;;;;;6081064;23;20432;-76
2023/09/02 09:49:44;;;;;;;2.93;2.50;;;21.40;99.90;;;;;;6057271;23;20397;-76
2023/09/02 09:52:10;;;;;;;2.50;2.30;;;21.40;99.90;;;;;;6056835;23;20149;-76
2023/09/02 09:54:40;;;;;;;3.40;3.10;;;21.40;99.90;;;;;;6083460;23;20469;-76
2023/09/02 09:57:07;;;;;;;4.03;3.20;;;21.50;99.90;;;;;;6057931;23;20386;-77
2023/09/02 09:59:35;;;;;;;3.90;2.50;;;21.50;99.90;;;;;;6060447;23;20386;-75
2023/09/02 10:02:05;;;;;;;2.40;2.20;;;21.60;99.90;;;;;;6085863;23;20453;-75
2023/09/02 10:04:33;;;;;;;2.63;2.20;;;21.80;99.90;;;;;;6084535;23;20444;-75
2023/09/02 10:07:03;;;;;;;2.00;1.60;;;21.80;99.90;;;;;;6066634;23;20365;-77
2023/09/02 10:09:45;;;;;;;2.60;1.83;;;21.80;99.90;;;;;;6061729;23;20392;-76
2023/09/02 10:12:18;;;;;;;4.00;2.20;;;21.80;99.90;;;;;;6058079;23;20405;-77
2023/09/02 10:14:45;;;;;;;2.80;2.40;;;21.80;99.90;;;;;;6061520;23;20390;-76
2023/09/02 10:17:12;;;;;;;2.20;1.80;;;21.80;99.90;;;;;;6112584;23;20388;-76
2023/09/02 10:19:38;;;;;;;1.70;1.60;;;21.90;99.90;;;;;;6087941;23;20375;-77
2023/09/02 10:22:05;;;;;;;2.60;1.60;;;21.90;99.90;;;;;;6114283;23;20369;-78
2023/09/02 10:24:39;;;;;;;2.50;1.90;;;22.00;99.90;;;;;;6090793;23;20404;-78
2023/09/02 10:27:16;;;;;;;1.70;1.60;;;22.10;99.90;;;;;;6113220;23;20365;-79
2023/09/02 10:29:43;;;;;;;3.13;1.80;;;22.20;99.90;;;;;;6117716;23;20365;-78
2023/09/02 10:32:12;;;;;;;2.87;1.60;;;22.20;99.90;;;;;;6090284;23;20385;-76
2023/09/02 10:35:19;;;;;;;2.00;1.73;;;22.20;99.90;;;;;;6113872;23;20457;-77
2023/09/02 10:37:53;;;;;;;2.10;1.90;;;22.30;99.90;;;;;;6092749;23;20631;-76
2023/09/02 10:40:27;;;;;;;2.30;1.63;;;22.40;99.90;;;;;;6112452;23;20397;-77
2023/09/02 10:42:54;;;;;;;2.40;2.20;;;22.60;99.90;;;;;;6115885;23;20380;-76
2023/09/02 10:45:20;;;;;;;2.90;1.70;;;22.70;99.90;;;;;;6115169;23;20414;-76
2023/09/02 10:47:47;;;;;;;1.80;1.60;;;22.70;99.90;;;;;;6087652;23;20381;-77
2023/09/02 10:50:16;;;;;;;2.40;2.17;;;22.70;99.90;;;;;;6087751;23;20404;-78
2023/09/02 10:52:42;;;;;;;2.60;2.40;;;23.00;99.90;;;;;;6115908;23;20389;-77
2023/09/02 10:55:09;;;;;;;2.70;1.70;;;23.20;99.90;;;;;;6114886;23;20364;-76
2023/09/02 10:57:57;;;;;;;2.33;2.00;;;23.50;99.90;;;;;;6116716;23;20404;-75
2023/09/02 11:00:27;;;;;;;1.83;1.60;;;23.60;99.90;;;;;;6094135;23;20464;-77
2023/09/02 11:02:57;;;;;;;1.93;1.77;;;23.70;99.90;;;;;;6113840;23;20396;-78
2023/09/02 11:05:27;;;;;;;2.53;2.10;;;23.80;97.00;;;;;;6087542;23;20432;-76
2023/09/02 11:07:53;;;;;;;2.37;1.90;;;23.80;96.70;;;;;;6064101;23;20440;-77
2023/09/02 11:10:19;;;;;;;3.73;2.33;;;23.70;94.60;;;;;;6065928;23;20407;-75
2023/09/02 11:13:01;;;;;;;3.97;1.60;;;23.70;95.50;;;;;;6112130;23;20387;-77
2023/09/02 11:15:31;;;;;;;2.20;2.00;;;23.80;94.20;;;;;;6115410;23;20440;-78
2023/09/02 11:18:17;;;;;;;3.07;2.50;;;23.90;94.00;;;;;;6115201;23;20458;-76
2023/09/02 11:20:49;;;;;;;2.80;2.53;;;23.90;92.50;;;;;;6092489;23;20682;-75
2023/09/02 11:23:21;;;;;;;2.53;2.33;;;23.90;91.70;;;;;;6117386;23;20365;-79
2023/09/02 11:26:03;;;;;;;5.70;2.60;;;23.90;91.40;;;;;;6067897;23;20380;-78
2023/09/02 11:28:29;;;;;;;2.97;2.43;;;24.00;90.80;;;;;;6116182;23;20841;-78
2023/09/02 11:31:12;;;;;;;2.23;1.70;;;24.10;91.20;;;;;;6094138;23;20412;-76
2023/09/02 11:33:46;;;;;;;1.90;1.60;;;24.30;90.30;;;;;;6092756;23;20380;-79
2023/09/02 11:36:15;;;;;;;2.87;2.57;;;24.30;90.00;;;;;;6115552;23;20786;-77
2023/09/02 11:38:41;;;;;;;3.63;2.50;;;24.30;88.20;;;;;;6113045;23;20381;-79
2023/09/02 11:41:07;;;;;;;3.70;2.13;;;24.40;86.70;;;;;;6091568;23;20411;-78
2023/09/02 11:43:34;;;;;;;4.43;2.70;;;24.50;87.60;;;;;;6095457;23;20178;-79
2023/09/02 11:46:01;;;;;;;4.10;2.37;;;24.90;83.00;;;;;;6065621;23;20392;-77
2023/09/02 11:48:28;;;;;;;3.03;2.23;;;25.00;82.70;;;;;;6088871;23;20388;-80
2023/09/02 11:50:58;;;;;;;3.03;1.97;;;24.90;79.80;;;;;;6096255;23;20439;-79
2023/09/02 11:53:30;;;;;;;5.63;4.43;;;24.90;79.90;;;;;;6074265;23;20361;-79
2023/09/02 11:55:56;;;;;;;4.13;3.03;;;24.90;79.10;;;;;;6049338;23;20388;-77
2023/09/02 11:58:23;;;;;;;3.10;2.40;;;24.90;80.20;;;;;;6069616;23;20373;-78
2023/09/02 12:00:49;;;;;;;3.27;2.07;;;25.10;78.90;;;;;;6115989;23;20861;-75
2023/09/02 12:03:22;;;;;;;1.90;1.60;;;25.40;76.00;;;;;;6069293;23;20389;-78
2023/09/02 12:05:50;;;;;;;1.93;1.60;;;25.60;74.30;;;;;;6092823;23;20368;-79
2023/09/02 12:08:17;;;;;;;2.67;2.17;;;25.60;74.60;;;;;;6087644;23;20805;-77
2023/09/02 12:10:45;;;;;;;3.47;1.87;;;25.60;74.40;;;;;;6117347;23;20392;-77
2023/09/02 12:13:10;;;;;;;5.20;3.80;;;25.60;73.20;;;;;;6067562;23;20407;-77
2023/09/02 12:15:36;;;;;;;3.67;2.77;;;25.50;72.40;;;;;;6119757;23;20357;-78
2023/09/02 12:18:02;;;;;;;1.90;1.60;;;25.40;72.60;;;;;;6089516;23;20206;-79
2023/09/02 12:20:28;;;;;;;4.50;2.43;;;25.30;73.30;;;;;;6092342;23;20212;-78
2023/09/02 12:22:54;;;;;;;2.67;2.30;;;25.20;72.60;;;;;;6090838;23;20377;-77
2023/09/02 12:25:22;;;;;;;3.17;2.30;;;25.10;73.50;;;;;;6114864;23;20494;-79
2023/09/02 12:27:49;;;;;;;3.47;2.30;;;25.00;73.40;;;;;;6089872;23;20153;-77
2023/09/02 12:30:30;;;;;;;2.73;1.90;;;25.00;74.10;;;;;;6090386;23;20881;-79
2023/09/02 12:32:57;;;;;;;1.87;1.77;;;25.10;72.90;;;;;;6068917;23;20432;-78
2023/09/02 12:35:23;;;;;;;3.50;1.87;;;25.20;73.70;;;;;;6120426;23;20372;-79
2023/09/02 12:38:05;;;;;;;6.43;2.30;;;25.40;71.20;;;;;;6097582;23;20384;-80
2023/09/02 12:40:32;;;;;;;2.27;1.90;;;25.50;69.40;;;;;;6069767;23;20195;-78
2023/09/02 12:42:59;;;;;;;3.80;2.20;;;25.70;69.10;;;;;;6090821;23;20395;-76
2023/09/02 12:45:29;;;;;;;2.53;1.70;;;26.00;66.80;;;;;;6068579;23;20419;-79
2023/09/02 12:47:58;;;;;;;2.00;1.60;;;26.30;66.70;;;;;;6119186;23;20420;-79